Time;durP1;ratioP1;P1;durP2;ratioP2;P2;SDS_P1;SDS_P2;PMS_P1;PMS_P2;Temp;Humidity;BMP_temperature;BMP_pressure;BME280_temperature;BME280_humidity;BME280_pressure;Samples;Min_cycle;Max_cycle;Signal;HPM_P1;HPM_P2
2023/03/12 00:00:45;;;;;;;7.45;6.75;;;-0.90;1.00;;;;;;4991966;28;20042;-50
2023/03/12 00:03:10;;;;;;;10.57;6.03;;;-0.80;1.00;;;;;;4991856;28;20030;-48
2023/03/12 00:05:40;;;;;;;7.60;6.80;;;-0.80;1.00;;;;;;4992040;28;20034;-51
2023/03/12 00:08:06;;;;;;;6.32;5.53;;;-0.80;1.00;;;;;;4991988;28;20113;-48
2023/03/12 00:10:33;;;;;;;6.65;6.03;;;-0.80;1.00;;;;;;4991748;28;20177;-48
2023/03/12 00:12:59;;;;;;;7.70;5.47;;;-0.90;1.00;;;;;;4990501;28;20026;-48
2023/03/12 00:15:24;;;;;;;7.80;6.07;;;-1.00;4.70;;;;;;4992028;28;20033;-52
2023/03/12 00:17:50;;;;;;;6.63;5.60;;;-1.00;5.00;;;;;;4991992;28;20031;-48
2023/03/12 00:20:17;;;;;;;6.88;5.18;;;-1.00;1.00;;;;;;4991816;28;20109;-49
2023/03/12 00:22:42;;;;;;;6.15;5.55;;;-1.00;1.00;;;;;;4991667;28;20771;-48
2023/03/12 00:25:14;;;;;;;6.55;5.95;;;-1.00;1.00;;;;;;4991886;28;20061;-50
2023/03/12 00:27:40;;;;;;;7.20;5.28;;;-1.10;1.00;;;;;;4995512;28;20046;-50
2023/03/12 00:30:07;;;;;;;8.80;6.15;;;-1.20;1.00;;;;;;4995861;28;20084;-50
2023/03/12 00:32:33;;;;;;;6.97;5.80;;;-1.20;1.00;;;;;;4995240;28;20557;-51
2023/03/12 00:34:59;;;;;;;11.35;6.10;;;-1.30;1.00;;;;;;4995781;28;20026;-48
2023/03/12 00:37:24;;;;;;;12.85;5.85;;;-1.30;1.00;;;;;;4995685;28;20041;-50
2023/03/12 00:39:50;;;;;;;9.35;6.63;;;-1.40;1.70;;;;;;4994132;28;20057;-48
2023/03/12 00:42:16;;;;;;;6.15;5.55;;;-1.50;4.80;;;;;;4995342;28;20117;-48
2023/03/12 00:44:43;;;;;;;9.15;6.80;;;-1.50;10.90;;;;;;4993997;28;20113;-48
2023/03/12 00:47:09;;;;;;;9.32;7.07;;;-1.60;12.90;;;;;;4995246;28;20113;-52
2023/03/12 00:49:35;;;;;;;9.10;6.63;;;-1.60;15.60;;;;;;4995407;28;20026;-47
2023/03/12 00:52:01;;;;;;;9.60;6.03;;;-1.70;18.60;;;;;;4995094;28;20454;-49
2023/03/12 00:54:26;;;;;;;7.68;5.65;;;-1.60;20.70;;;;;;4995334;28;20077;-51
2023/03/12 00:56:52;;;;;;;10.48;6.13;;;-1.60;15.90;;;;;;4995295;28;20109;-50
2023/03/12 00:59:18;;;;;;;6.45;5.07;;;-1.60;12.90;;;;;;4995387;28;20465;-50
2023/03/12 01:01:43;;;;;;;7.07;6.20;;;-1.60;20.40;;;;;;4994673;28;20034;-48
2023/03/12 01:04:09;;;;;;;11.98;5.90;;;-1.60;20.40;;;;;;4995230;28;20594;-48
2023/03/12 01:06:35;;;;;;;12.55;5.40;;;-1.50;14.10;;;;;;4995026;28;20022;-50
2023/03/12 01:09:04;;;;;;;6.90;5.78;;;-1.60;3.00;;;;;;4995222;28;20030;-52
2023/03/12 01:11:31;;;;;;;6.63;5.70;;;-1.50;1.00;;;;;;4994620;28;20022;-51
2023/03/12 01:13:58;;;;;;;8.70;5.97;;;-1.50;1.00;;;;;;4993606;28;20141;-47
2023/03/12 01:16:27;;;;;;;8.18;5.38;;;-1.50;3.20;;;;;;4992893;28;20034;-47
2023/03/12 01:18:53;;;;;;;6.80;5.60;;;-1.50;1.00;;;;;;4994248;28;20018;-50
2023/03/12 01:21:19;;;;;;;7.30;6.22;;;-1.50;10.70;;;;;;4994655;28;20030;-50
2023/03/12 01:23:45;;;;;;;9.75;5.95;;;-1.50;9.70;;;;;;4994414;28;20026;-48
2023/03/12 01:26:10;;;;;;;6.68;5.43;;;-1.50;13.00;;;;;;4993848;28;20113;-47
2023/03/12 01:28:36;;;;;;;7.45;6.53;;;-1.60;10.80;;;;;;4993743;28;20030;-48
2023/03/12 01:31:09;;;;;;;10.50;5.88;;;-1.50;7.50;;;;;;4993758;28;20161;-48
2023/03/12 01:33:35;;;;;;;;;;;-1.60;3.50;;;;;;4977600;28;20053;-47
2023/03/12 01:36:01;;;;;;;11.93;5.97;;;-1.60;1.00;;;;;;4974079;28;19988;-49
2023/03/12 01:38:26;;;;;;;7.20;5.32;;;-1.70;2.60;;;;;;4973761;28;20031;-51
2023/03/12 01:40:52;;;;;;;9.77;5.95;;;-1.70;1.00;;;;;;4975075;28;20034;-51
2023/03/12 01:43:31;;;;;;;6.43;5.75;;;-1.80;1.00;;;;;;4975042;28;20030;-47
2023/03/12 01:46:20;;;;;;;7.85;6.00;;;-1.80;1.00;;;;;;4975018;28;20015;-47
2023/03/12 01:49:09;;;;;;;8.85;5.72;;;-1.90;1.00;;;;;;4974721;28;20023;-48
2023/03/12 01:51:48;;;;;;;8.88;6.20;;;-1.90;1.00;;;;;;4974349;28;20035;-52
2023/03/12 01:54:19;;;;;;;8.38;6.13;;;-2.10;1.00;;;;;;4974836;28;20152;-47
2023/03/12 01:56:46;;;;;;;7.05;5.50;;;-2.10;1.00;;;;;;4974730;28;20023;-50
2023/03/12 01:59:16;;;;;;;7.40;5.97;;;-2.10;1.00;;;;;;4974752;28;20098;-48
2023/03/12 02:01:43;;;;;;;6.93;4.93;;;-2.20;1.00;;;;;;4973282;28;20033;-47
2023/03/12 02:04:09;;;;;;;6.72;5.72;;;-2.30;1.00;;;;;;4974822;28;20026;-51
2023/03/12 02:06:48;;;;;;;7.75;6.72;;;-2.30;2.00;;;;;;4974453;28;20023;-49
2023/03/12 02:09:18;;;;;;;10.90;6.90;;;-2.40;8.40;;;;;;4974551;28;20493;-48
2023/03/12 02:11:44;;;;;;;8.48;5.68;;;-2.40;10.70;;;;;;4974325;28;20412;-51
2023/03/12 02:14:09;;;;;;;9.20;6.00;;;-2.50;12.70;;;;;;4975615;28;20027;-48
2023/03/12 02:16:35;;;;;;;9.68;6.07;;;-2.70;23.30;;;;;;4974273;28;20054;-49
2023/03/12 02:19:02;;;;;;;7.95;6.53;;;-2.70;29.20;;;;;;4974397;28;20045;-51
2023/03/12 02:21:32;;;;;;;6.70;6.03;;;-2.60;26.40;;;;;;4974111;28;20037;-48
2023/03/12 02:24:20;;;;;;;9.93;6.32;;;-2.60;25.70;;;;;;4974444;28;20015;-51
2023/03/12 02:26:48;;;;;;;6.30;5.50;;;-2.60;21.30;;;;;;4973858;28;20054;-52
2023/03/12 02:29:14;;;;;;;7.80;5.68;;;-2.60;22.50;;;;;;4972960;28;20393;-47
2023/03/12 02:31:45;;;;;;;11.80;7.72;;;-2.60;20.80;;;;;;4973866;28;20031;-47
2023/03/12 02:34:11;;;;;;;13.20;8.27;;;-2.60;21.00;;;;;;4974062;28;20026;-49
2023/03/12 02:36:37;;;;;;;11.20;6.15;;;-2.70;17.70;;;;;;4973846;28;20031;-48
2023/03/12 02:39:03;;;;;;;7.18;5.63;;;-2.70;15.60;;;;;;4974076;28;20113;-50
2023/03/12 02:41:35;;;;;;;8.48;6.68;;;-2.70;11.30;;;;;;4973867;28;20023;-48
2023/03/12 02:44:16;;;;;;;8.70;6.45;;;-2.70;13.20;;;;;;4973885;28;20062;-51
2023/03/12 02:46:45;;;;;;;8.35;5.38;;;-2.70;13.40;;;;;;4972374;28;20038;-48
2023/03/12 02:49:12;;;;;;;9.45;6.75;;;-2.70;23.10;;;;;;4973464;28;20361;-48
2023/03/12 02:51:39;;;;;;;11.98;6.40;;;-2.70;27.10;;;;;;4973740;28;20026;-51
2023/03/12 02:54:06;;;;;;;10.40;8.32;;;-2.70;28.70;;;;;;4973715;28;20031;-50
2023/03/12 02:56:32;;;;;;;7.13;6.15;;;-2.80;29.50;;;;;;4973764;28;20110;-51
2023/03/12 02:58:58;;;;;;;7.07;6.32;;;-2.80;33.10;;;;;;4974175;28;20065;-48
2023/03/12 03:01:24;;;;;;;10.60;7.00;;;-2.80;99.90;;;;;;4974783;28;20037;-50
2023/03/12 03:03:50;;;;;;;7.03;6.20;;;-2.80;99.90;;;;;;4973386;28;20026;-48
2023/03/12 03:06:16;;;;;;;7.03;6.32;;;-2.80;99.90;;;;;;4973638;28;20026;-48
2023/03/12 03:08:42;;;;;;;7.85;6.43;;;-2.80;99.90;;;;;;4973249;28;20070;-48
2023/03/12 03:11:08;;;;;;;7.25;6.20;;;-2.80;99.90;;;;;;4973420;28;20038;-49
2023/03/12 03:13:34;;;;;;;6.57;5.93;;;-2.70;99.90;;;;;;4973367;28;20033;-48
2023/03/12 03:16:00;;;;;;;12.57;6.53;;;-2.70;99.90;;;;;;4973469;28;20030;-48
2023/03/12 03:18:27;;;;;;;8.02;6.90;;;-2.80;99.90;;;;;;4972000;28;20081;-52
2023/03/12 03:21:01;;;;;;;8.13;7.15;;;-2.90;99.90;;;;;;4973332;28;20070;-48
2023/03/12 03:23:27;;;;;;;7.28;5.95;;;-2.90;99.90;;;;;;4973240;28;20027;-49
2023/03/12 03:25:52;;;;;;;6.97;6.22;;;-2.90;99.90;;;;;;4973335;28;20027;-50
2023/03/12 03:28:20;;;;;;;7.70;6.43;;;-2.80;99.90;;;;;;4971810;28;20046;-50
2023/03/12 03:30:45;;;;;;;6.85;6.13;;;-2.80;99.90;;;;;;4971879;28;20045;-48
2023/03/12 03:33:11;;;;;;;14.57;5.78;;;-2.80;99.90;;;;;;4973154;28;20390;-47
2023/03/12 03:35:37;;;;;;;6.00;5.43;;;-2.70;99.90;;;;;;4972963;28;20454;-52
2023/03/12 03:38:03;;;;;;;8.50;6.43;;;-2.60;99.90;;;;;;4973051;28;20030;-48
2023/03/12 03:40:29;;;;;;;5.97;5.18;;;-2.60;99.90;;;;;;4972902;28;20035;-48
2023/03/12 03:42:55;;;;;;;8.18;7.00;;;-2.60;99.90;;;;;;4972920;28;20035;-48
2023/03/12 03:45:20;;;;;;;7.15;5.32;;;-2.60;99.90;;;;;;4972990;28;20030;-48
2023/03/12 03:47:46;;;;;;;6.32;5.22;;;-2.60;99.90;;;;;;4972815;28;20031;-48
2023/03/12 03:50:12;;;;;;;13.27;6.15;;;-2.60;99.90;;;;;;4972955;28;20070;-48
2023/03/12 03:52:38;;;;;;;7.10;6.40;;;-2.60;99.90;;;;;;4974732;28;20073;-48
2023/03/12 03:55:04;;;;;;;9.80;6.50;;;-2.60;99.90;;;;;;4992044;28;20109;-50
2023/03/12 03:57:30;;;;;;;11.77;5.38;;;-2.60;99.90;;;;;;4992318;28;20022;-51
2023/03/12 03:59:57;;;;;;;5.78;5.10;;;-2.60;99.90;;;;;;4992190;28;20034;-48
2023/03/12 04:02:24;;;;;;;6.10;5.47;;;-2.60;99.90;;;;;;4995789;28;20037;-48
2023/03/12 04:04:50;;;;;;;7.90;6.13;;;-2.70;99.90;;;;;;4994707;28;20525;-48
2023/03/12 04:07:16;;;;;;;6.47;5.70;;;-2.80;99.90;;;;;;4996187;28;20113;-48
2023/03/12 04:09:42;;;;;;;6.80;6.15;;;-2.70;99.90;;;;;;4995881;28;20387;-51
2023/03/12 04:12:08;;;;;;;9.30;6.65;;;-2.80;99.90;;;;;;4995958;28;20133;-47
2023/03/12 04:14:33;;;;;;;9.35;5.88;;;-2.70;99.90;;;;;;4995424;28;20117;-50
2023/03/12 04:16:59;;;;;;;6.35;5.75;;;-2.70;99.90;;;;;;4995902;28;20104;-48
2023/03/12 04:19:25;;;;;;;8.20;6.22;;;-2.70;99.90;;;;;;4996120;28;20038;-50
2023/03/12 04:21:50;;;;;;;8.23;6.07;;;-2.70;99.90;;;;;;4995893;28;20382;-49
2023/03/12 04:24:17;;;;;;;9.23;6.20;;;-2.70;99.90;;;;;;4984952;28;20027;-48
2023/03/12 04:26:43;;;;;;;8.13;6.60;;;-2.70;99.90;;;;;;4993936;28;20654;-48
2023/03/12 04:29:08;;;;;;;7.25;5.75;;;-2.70;99.90;;;;;;4994411;28;20034;-51
2023/03/12 04:31:34;;;;;;;8.52;5.88;;;-2.70;99.90;;;;;;4995765;28;20030;-48
2023/03/12 04:34:00;;;;;;;5.85;5.25;;;-2.70;99.90;;;;;;4995634;28;20037;-48
2023/03/12 04:36:26;;;;;;;8.30;6.13;;;-2.80;99.90;;;;;;4995763;28;20420;-49
2023/03/12 04:38:52;;;;;;;8.13;6.00;;;-2.90;99.90;;;;;;4995427;28;20424;-52
2023/03/12 04:41:18;;;;;;;12.55;5.50;;;-2.90;99.90;;;;;;4995490;28;20101;-48
2023/03/12 04:43:43;;;;;;;8.98;5.50;;;-3.00;99.90;;;;;;4995393;28;20038;-49
2023/03/12 04:46:09;;;;;;;8.43;6.05;;;-3.00;99.90;;;;;;4995597;28;20486;-47
2023/03/12 04:48:36;;;;;;;8.45;5.78;;;-2.90;99.90;;;;;;4995303;28;20026;-48
2023/03/12 04:51:03;;;;;;;6.05;5.38;;;-2.90;99.90;;;;;;4995372;28;20105;-51
2023/03/12 04:53:29;;;;;;;7.72;6.25;;;-2.80;99.90;;;;;;4994986;28;20343;-47
2023/03/12 04:55:54;;;;;;;8.10;5.90;;;-2.80;99.90;;;;;;4995524;28;20089;-49
2023/03/12 04:58:21;;;;;;;7.63;5.78;;;-2.70;99.90;;;;;;4995394;28;20350;-49
2023/03/12 05:00:48;;;;;;;6.93;6.22;;;-2.60;99.90;;;;;;4994846;28;20042;-48
2023/03/12 05:03:20;;;;;;;7.47;6.20;;;-2.60;99.90;;;;;;4995230;28;20039;-48
2023/03/12 05:05:45;;;;;;;12.20;6.90;;;-2.60;99.90;;;;;;4995212;28;20031;-50
2023/03/12 05:08:11;;;;;;;8.90;5.45;;;-2.50;99.90;;;;;;4995125;28;20030;-50
2023/03/12 05:10:37;;;;;;;11.60;7.63;;;-2.50;99.90;;;;;;4994870;28;20038;-51
2023/03/12 05:13:02;;;;;;;8.98;6.57;;;-2.50;99.90;;;;;;4994682;28;20034;-51
2023/03/12 05:15:28;;;;;;;8.30;5.88;;;-2.40;99.90;;;;;;4994965;28;20125;-52
2023/03/12 05:17:53;;;;;;;10.13;7.25;;;-2.40;99.90;;;;;;4995034;28;20089;-48
2023/03/12 05:20:19;;;;;;;8.95;5.93;;;-2.40;99.90;;;;;;4994796;28;20031;-49
2023/03/12 05:22:45;;;;;;;11.65;7.15;;;-2.30;99.90;;;;;;4993358;28;20104;-48
2023/03/12 05:25:11;;;;;;;8.50;6.45;;;-2.40;99.90;;;;;;4994917;28;20089;-49
2023/03/12 05:27:37;;;;;;;15.35;7.85;;;-2.30;99.90;;;;;;4994548;28;20434;-50
2023/03/12 05:30:05;;;;;;;11.88;8.20;;;-2.30;99.90;;;;;;4994782;28;20038;-49
2023/03/12 05:32:31;;;;;;;10.05;6.95;;;-2.20;99.90;;;;;;4994670;28;20068;-49
2023/03/12 05:34:56;;;;;;;7.03;6.28;;;-2.20;99.90;;;;;;4994451;28;20050;-51
2023/03/12 05:37:22;;;;;;;7.50;6.65;;;-2.20;99.90;;;;;;4993254;28;20121;-48
2023/03/12 05:39:47;;;;;;;12.30;7.45;;;-2.10;99.90;;;;;;4994366;28;20125;-50
2023/03/12 05:42:14;;;;;;;7.97;6.80;;;-2.00;99.90;;;;;;4994366;28;20030;-47
2023/03/12 05:44:40;;;;;;;7.70;6.28;;;-2.00;99.90;;;;;;4994432;28;20033;-48
2023/03/12 05:47:06;;;;;;;8.77;6.22;;;-1.90;99.90;;;;;;4994338;28;20113;-49
2023/03/12 05:49:32;;;;;;;7.43;5.72;;;-1.90;99.90;;;;;;4994047;28;20026;-47
2023/03/12 05:51:58;;;;;;;9.13;6.63;;;-1.80;99.90;;;;;;4994370;28;20572;-47
2023/03/12 05:54:24;;;;;;;12.45;8.45;;;-1.80;99.90;;;;;;4994279;28;20171;-51
2023/03/12 05:56:50;;;;;;;10.07;7.50;;;-1.70;99.90;;;;;;4994303;28;20026;-48
2023/03/12 05:59:15;;;;;;;9.43;7.68;;;-1.60;99.90;;;;;;4994135;28;20478;-49
2023/03/12 06:01:42;;;;;;;8.35;7.35;;;-1.60;99.90;;;;;;4992616;28;20026;-50
2023/03/12 06:04:07;;;;;;;9.50;8.13;;;-1.60;99.90;;;;;;4992800;28;20057;-50
2023/03/12 06:06:35;;;;;;;10.40;7.30;;;-1.60;99.90;;;;;;4994064;28;20070;-48
2023/03/12 06:09:02;;;;;;;10.68;7.80;;;-1.60;99.90;;;;;;4993951;28;20018;-48
2023/03/12 06:11:29;;;;;;;8.18;6.72;;;-1.50;99.90;;;;;;4993665;28;20085;-48
2023/03/12 06:13:56;;;;;;;12.52;7.15;;;-1.40;99.90;;;;;;4994013;28;20026;-48
2023/03/12 06:16:24;;;;;;;9.98;7.72;;;-1.40;99.90;;;;;;4993779;28;20454;-48
2023/03/12 06:18:55;;;;;;;7.47;6.78;;;-1.30;99.90;;;;;;4991996;28;20478;-48
2023/03/12 06:21:23;;;;;;;9.40;7.00;;;-1.30;99.90;;;;;;4993587;28;20037;-48
2023/03/12 06:23:50;;;;;;;8.27;7.40;;;-1.20;99.90;;;;;;4992793;28;20046;-47
2023/03/12 06:26:17;;;;;;;11.02;7.30;;;-1.10;99.90;;;;;;4993095;28;20520;-52
2023/03/12 06:28:44;;;;;;;7.50;6.72;;;-1.10;99.90;;;;;;4993531;28;20035;-48
2023/03/12 06:31:10;;;;;;;8.38;7.20;;;-0.90;99.90;;;;;;4993524;28;20094;-49
2023/03/12 06:33:35;;;;;;;10.95;7.90;;;-0.90;99.90;;;;;;4993582;28;20109;-50
2023/03/12 06:36:04;;;;;;;7.05;6.15;;;-0.80;99.90;;;;;;4993301;28;20513;-51
2023/03/12 06:38:30;;;;;;;9.70;6.40;;;-0.80;99.90;;;;;;4993167;28;20115;-49
2023/03/12 06:41:01;;;;;;;8.18;5.57;;;-0.70;99.90;;;;;;4993015;28;20039;-48
2023/03/12 06:43:30;;;;;;;6.68;5.72;;;-0.60;99.90;;;;;;4993128;28;20121;-48
2023/03/12 06:45:58;;;;;;;6.43;4.97;;;-0.50;99.90;;;;;;4993008;28;20033;-51
2023/03/12 06:48:25;;;;;;;7.75;6.38;;;-0.40;99.90;;;;;;4993091;28;20046;-52
2023/03/12 06:50:51;;;;;;;9.00;6.35;;;-0.30;99.90;;;;;;4992548;28;20657;-50
2023/03/12 06:53:17;;;;;;;7.13;6.15;;;-0.40;99.90;;;;;;4992739;28;20105;-48
2023/03/12 06:55:44;;;;;;;10.18;7.03;;;-0.50;99.90;;;;;;4992935;28;20028;-53
2023/03/12 06:58:10;;;;;;;11.90;6.75;;;-0.50;99.90;;;;;;4992810;28;20389;-48
2023/03/12 07:01:00;;;;;;;13.43;10.00;;;-0.60;99.90;;;;;;4992484;28;20034;-49
2023/03/12 07:03:26;;;;;;;21.23;10.52;;;-0.50;95.20;;;;;;4973514;28;20035;-52
2023/03/12 07:05:55;;;;;;;16.20;9.50;;;-0.40;99.90;;;;;;4973426;28;20378;-50
2023/03/12 07:08:21;;;;;;;16.25;10.00;;;-0.20;99.90;;;;;;4972029;28;20478;-48
2023/03/12 07:10:47;;;;;;;11.60;7.45;;;0.00;99.90;;;;;;4972955;28;20034;-52
2023/03/12 07:13:13;;;;;;;9.35;7.88;;;0.30;99.90;;;;;;4991722;28;20026;-50
2023/03/12 07:15:39;;;;;;;11.38;7.97;;;0.70;1.00;;;;;;4992232;28;20394;-52
2023/03/12 07:18:07;;;;;;;9.00;6.93;;;0.90;1.00;;;;;;4992610;28;20026;-48
2023/03/12 07:20:35;;;;;;;7.88;6.70;;;0.90;1.00;;;;;;4992369;28;20030;-48
2023/03/12 07:23:01;;;;;;;10.23;6.47;;;1.00;1.00;;;;;;4991255;28;20037;-48
2023/03/12 07:25:26;;;;;;;8.77;6.40;;;1.00;1.00;;;;;;4992056;28;20030;-51
2023/03/12 07:27:52;;;;;;;7.10;6.40;;;1.30;1.00;;;;;;4986399;28;20031;-54
2023/03/12 07:30:18;;;;;;;8.52;6.40;;;1.50;1.00;;;;;;4973004;28;20026;-50
2023/03/12 07:32:43;;;;;;;19.80;9.85;;;1.40;99.90;;;;;;4972849;28;20477;-53
2023/03/12 07:35:09;;;;;;;10.80;9.35;;;1.50;99.90;;;;;;4972808;28;20362;-47
2023/03/12 07:37:35;;;;;;;7.13;6.03;;;1.80;99.90;;;;;;4972550;28;20031;-48
2023/03/12 07:40:01;;;;;;;8.57;6.07;;;2.10;1.00;;;;;;4978335;28;20036;-51
2023/03/12 07:42:26;;;;;;;5.95;4.88;;;2.20;1.00;;;;;;4992106;28;20069;-53
2023/03/12 07:44:52;;;;;;;12.43;6.88;;;2.40;23.80;;;;;;4992436;28;20033;-51
2023/03/12 07:47:18;;;;;;;16.77;7.53;;;2.60;94.40;;;;;;4991999;28;20022;-49
2023/03/12 07:49:43;;;;;;;5.97;5.32;;;2.60;99.90;;;;;;4992076;28;20030;-48
2023/03/12 07:52:10;;;;;;;6.85;4.78;;;2.80;99.90;;;;;;4992466;28;20027;-49
2023/03/12 07:54:37;;;;;;;9.88;5.03;;;3.10;99.30;;;;;;4990901;28;20049;-52
2023/03/12 07:57:03;;;;;;;5.45;4.47;;;3.30;98.80;;;;;;4992309;28;20022;-51
2023/03/12 07:59:29;;;;;;;7.18;4.90;;;3.60;97.90;;;;;;4992061;28;20081;-48
2023/03/12 08:01:54;;;;;;;7.28;4.78;;;3.60;97.40;;;;;;4992051;28;20030;-48
2023/03/12 08:04:20;;;;;;;5.20;4.70;;;3.50;98.20;;;;;;4992199;28;20057;-50
2023/03/12 08:06:46;;;;;;;4.90;4.40;;;3.60;97.80;;;;;;4991938;28;20037;-49
2023/03/12 08:09:11;;;;;;;7.32;5.45;;;3.70;98.00;;;;;;4992011;28;20037;-51
2023/03/12 08:11:37;;;;;;;8.77;4.78;;;3.80;98.10;;;;;;4992148;28;20022;-49
2023/03/12 08:14:04;;;;;;;6.93;5.25;;;3.90;98.20;;;;;;4992104;28;20057;-52
2023/03/12 08:16:29;;;;;;;7.07;4.75;;;4.30;97.60;;;;;;4992021;28;20019;-50
2023/03/12 08:18:55;;;;;;;8.88;5.72;;;4.50;97.10;;;;;;4990664;28;20030;-48
2023/03/12 08:21:21;;;;;;;5.97;4.72;;;4.60;97.20;;;;;;4990693;28;20035;-49
2023/03/12 08:23:47;;;;;;;7.13;5.35;;;4.70;96.70;;;;;;4990561;28;21276;-49
2023/03/12 08:26:12;;;;;;;4.68;4.28;;;4.70;96.80;;;;;;4991900;28;20030;-51
2023/03/12 08:28:38;;;;;;;5.75;4.55;;;4.90;96.20;;;;;;4991987;28;20065;-50
2023/03/12 08:31:04;;;;;;;6.07;4.78;;;4.90;95.70;;;;;;4990607;28;20034;-53
2023/03/12 08:33:30;;;;;;;5.75;4.95;;;4.90;94.50;;;;;;4991937;28;20026;-49
2023/03/12 08:35:55;;;;;;;6.72;4.93;;;5.00;94.80;;;;;;4991953;28;20080;-49
2023/03/12 08:38:21;;;;;;;5.30;4.70;;;5.10;94.40;;;;;;4992533;28;20037;-48
2023/03/12 08:40:57;;;;;;;6.18;4.80;;;5.60;94.10;;;;;;4991733;28;20046;-48
2023/03/12 08:43:23;;;;;;;6.32;5.40;;;5.80;93.80;;;;;;4988362;28;20033;-52
2023/03/12 08:45:59;;;;;;;6.65;5.93;;;5.60;92.80;;;;;;4990321;28;20034;-49
2023/03/12 08:48:27;;;;;;;6.97;5.60;;;5.70;92.50;;;;;;4994086;28;20031;-49
2023/03/12 08:50:58;;;;;;;7.03;5.68;;;5.90;92.00;;;;;;4995089;28;20121;-47
2023/03/12 08:53:25;;;;;;;8.05;6.25;;;6.20;91.10;;;;;;4995099;28;20030;-49
2023/03/12 08:55:54;;;;;;;7.90;5.68;;;6.30;92.10;;;;;;4994666;28;20030;-51
2023/03/12 08:58:21;;;;;;;7.00;5.88;;;6.40;91.60;;;;;;4994504;28;20034;-50
2023/03/12 09:00:46;;;;;;;9.90;6.90;;;6.20;92.80;;;;;;4993157;28;20418;-49
2023/03/12 09:03:13;;;;;;;12.98;8.60;;;5.70;93.10;;;;;;4994481;28;20084;-53
2023/03/12 09:05:40;;;;;;;8.88;7.28;;;5.30;93.80;;;;;;4994355;28;20489;-51
2023/03/12 09:08:06;;;;;;;8.07;6.25;;;5.10;1.00;;;;;;4989460;28;20022;-50
2023/03/12 09:10:32;;;;;;;9.52;7.75;;;5.00;1.00;;;;;;4994657;28;20054;-49
2023/03/12 09:12:58;;;;;;;12.05;6.50;;;5.10;1.00;;;;;;4994392;28;20065;-51
2023/03/12 09:15:23;;;;;;;10.43;7.05;;;5.00;85.90;;;;;;4994712;28;20031;-51
2023/03/12 09:17:49;;;;;;;9.55;7.30;;;5.00;1.00;;;;;;4992768;28;20083;-52
2023/03/12 09:20:15;;;;;;;6.90;4.78;;;5.10;1.00;;;;;;4994172;28;20072;-48
2023/03/12 09:22:41;;;;;;;15.98;7.43;;;5.20;1.00;;;;;;4994498;28;20373;-51
2023/03/12 09:25:08;;;;;;;10.35;6.35;;;5.30;1.00;;;;;;4994262;28;20018;-48
2023/03/12 09:27:39;;;;;;;12.05;7.53;;;5.20;99.90;;;;;;4993952;28;20058;-51
2023/03/12 09:30:07;;;;;;;8.23;6.00;;;4.90;1.00;;;;;;4993940;28;20026;-53
2023/03/12 09:32:33;;;;;;;7.32;5.72;;;4.70;1.00;;;;;;4994266;28;20061;-51
2023/03/12 09:34:58;;;;;;;7.28;6.47;;;4.60;99.90;;;;;;4994271;28;20568;-52
2023/03/12 09:37:24;;;;;;;11.23;5.70;;;4.60;90.70;;;;;;4994218;28;20027;-50
2023/03/12 09:39:51;;;;;;;7.72;5.70;;;4.60;1.00;;;;;;4993714;28;20501;-52
2023/03/12 09:42:46;;;;;;;11.20;6.63;;;4.10;1.00;;;;;;4978079;28;20018;-49
2023/03/12 09:45:20;;;;;;;11.68;6.75;;;3.80;1.00;;;;;;4993592;28;20030;-51
2023/03/12 09:47:50;;;;;;;9.43;7.35;;;3.50;1.00;;;;;;4992647;28;20031;-50
2023/03/12 09:50:24;;;;;;;8.32;6.10;;;3.20;1.40;;;;;;4993579;28;20370;-52
2023/03/12 09:53:17;;;;;;;14.02;7.68;;;3.20;1.00;;;;;;4994023;28;20113;-51
2023/03/12 09:55:48;;;;;;;9.70;6.88;;;3.20;17.00;;;;;;4993567;28;20026;-50
2023/03/12 09:58:21;;;;;;;8.75;7.32;;;3.00;3.90;;;;;;4992153;28;20054;-53
2023/03/12 10:00:47;;;;;;;12.73;9.07;;;3.10;22.20;;;;;;4992918;28;20654;-50
2023/03/12 10:03:40;;;;;;;9.27;7.90;;;3.00;22.80;;;;;;4993289;28;20022;-51
2023/03/12 10:06:47;;;;;;;20.63;8.18;;;3.10;29.10;;;;;;4990576;28;20083;-51
2023/03/12 10:09:40;;;;;;;9.10;7.10;;;3.20;26.30;;;;;;4992007;28;20473;-51
2023/03/12 10:12:20;;;;;;;14.88;7.90;;;3.40;99.90;;;;;;4992286;28;20660;-52
2023/03/12 10:15:05;;;;;;;9.25;6.68;;;3.60;99.90;;;;;;4993973;28;20026;-52
2023/03/12 10:17:35;;;;;;;12.10;8.55;;;3.60;99.90;;;;;;4994495;28;20481;-52
2023/03/12 10:20:19;;;;;;;10.45;7.22;;;3.70;99.90;;;;;;4993901;28;20373;-51
2023/03/12 10:23:12;;;;;;;11.57;8.13;;;3.80;99.90;;;;;;4982015;28;20122;-55
2023/03/12 10:26:02;;;;;;;10.93;8.52;;;3.60;99.90;;;;;;4984767;28;20042;-53
2023/03/12 10:28:41;;;;;;;12.00;7.80;;;3.50;99.90;;;;;;4991911;28;20760;-53
2023/03/12 10:31:14;;;;;;;9.98;7.10;;;3.40;99.90;;;;;;4991961;28;20042;-50
2023/03/12 10:34:02;;;;;;;11.27;7.72;;;3.30;99.90;;;;;;4992138;28;20038;-53
2023/03/12 10:36:47;;;;;;;10.50;7.35;;;3.20;99.90;;;;;;4991587;28;20023;-53
2023/03/12 10:39:15;;;;;;;8.55;7.57;;;3.10;99.90;;;;;;4991658;28;20046;-51
2023/03/12 10:41:43;;;;;;;9.93;7.88;;;3.00;99.90;;;;;;4991265;28;20480;-53
2023/03/12 10:44:19;;;;;;;9.88;8.05;;;3.00;99.90;;;;;;4992184;28;20634;-49
2023/03/12 10:47:10;;;;;;;10.90;7.75;;;3.00;99.90;;;;;;4975368;28;20030;-53
2023/03/12 10:49:36;;;;;;;15.75;9.93;;;3.20;99.90;;;;;;4992604;28;20033;-49
2023/03/12 10:52:20;;;;;;;18.38;11.52;;;3.20;99.90;;;;;;4992267;28;20037;-51
2023/03/12 10:54:48;;;;;;;12.15;9.43;;;3.20;99.90;;;;;;4992616;28;20030;-51
2023/03/12 11:00:36;;;;;;;13.75;10.32;;;3.20;99.90;;;;;;4992369;28;20507;-52
2023/03/12 11:03:17;;;;;;;11.63;8.13;;;3.30;99.90;;;;;;4991650;28;20030;-52
2023/03/12 11:05:48;;;;;;;10.82;8.35;;;3.60;99.90;;;;;;4991882;28;20347;-51
2023/03/12 11:08:22;;;;;;;15.80;10.45;;;3.80;99.90;;;;;;4990991;28;20085;-51
2023/03/12 11:10:48;;;;;;;11.68;8.35;;;3.80;99.90;;;;;;4973754;28;20042;-50
2023/03/12 11:13:29;;;;;;;13.38;10.57;;;3.90;99.90;;;;;;4961549;28;20045;-50
2023/03/12 11:16:00;;;;;;;12.65;9.18;;;4.00;99.90;;;;;;4962306;28;20031;-52
2023/03/12 11:18:32;;;;;;;10.95;8.15;;;4.20;99.90;;;;;;4962705;28;20429;-53
2023/03/12 11:21:14;;;;;;;14.30;8.97;;;4.40;99.90;;;;;;4961901;28;20177;-50
2023/03/12 11:23:42;;;;;;;10.95;8.02;;;4.60;99.90;;;;;;4960597;28;20058;-52
2023/03/12 11:26:16;;;;;;;15.43;8.10;;;4.80;99.90;;;;;;4962267;28;20026;-49
2023/03/12 11:29:00;;;;;;;9.38;7.13;;;5.20;99.90;;;;;;4961242;28;20130;-50
2023/03/12 11:31:48;;;;;;;;;;;5.30;99.90;;;;;;4962626;28;20118;-49
2023/03/12 11:34:21;;;;;;;9.27;7.40;;;5.20;99.90;;;;;;4955873;28;19910;-51
2023/03/12 11:36:57;;;;;;;21.40;11.48;;;5.50;99.90;;;;;;4960587;28;20039;-54
2023/03/12 11:39:30;;;;;;;10.88;8.38;;;5.60;99.90;;;;;;4975347;28;20150;-54
2023/03/12 11:42:19;;;;;;;8.73;7.15;;;5.70;99.90;;;;;;4962341;28;20030;-51
2023/03/12 11:44:55;;;;;;;11.02;7.50;;;5.80;99.90;;;;;;4959779;28;20129;-53
2023/03/12 11:47:36;;;;;;;9.75;7.80;;;5.80;99.90;;;;;;4961683;28;20089;-52
2023/03/12 11:50:23;;;;;;;10.70;7.95;;;5.90;99.90;;;;;;4961333;28;20030;-55
2023/03/12 11:52:56;;;;;;;10.93;7.82;;;5.80;99.90;;;;;;4962668;28;20356;-51
2023/03/12 11:55:54;;;;;;;40.25;21.58;;;5.70;99.90;;;;;;4980814;28;20034;-52
2023/03/12 11:58:37;;;;;;;17.25;12.38;;;5.50;99.90;;;;;;4982019;28;20034;-47
2023/03/12 12:01:17;;;;;;;8.02;6.57;;;5.60;99.90;;;;;;4964738;28;20493;-49
2023/03/12 12:04:17;;;;;;;9.88;7.43;;;5.60;99.90;;;;;;4965633;28;20446;-55
2023/03/12 12:07:01;;;;;;;9.23;7.80;;;5.50;99.90;;;;;;4964792;28;20038;-51
2023/03/12 12:09:44;;;;;;;7.43;5.95;;;5.40;99.90;;;;;;4996275;28;20685;-52
2023/03/12 12:12:13;;;;;;;8.65;5.63;;;5.70;99.90;;;;;;4981470;28;20074;-55
2023/03/12 12:15:22;;;;;;;7.70;5.90;;;5.80;99.90;;;;;;4979439;28;20033;-50
2023/03/12 12:18:25;;;;;;;14.05;5.68;;;5.80;99.90;;;;;;4961625;28;20035;-52
2023/03/12 12:21:06;;;;;;;5.20;4.50;;;5.90;99.90;;;;;;4980735;28;20125;-53
2023/03/12 12:23:56;;;;;;;5.90;4.93;;;5.80;99.90;;;;;;4973805;28;20094;-49
2023/03/12 12:26:51;;;;;;;8.02;5.82;;;5.60;99.90;;;;;;4978330;28;20038;-50
2023/03/12 12:30:01;;;;;;;7.28;5.65;;;5.60;99.90;;;;;;4962042;28;20050;-49
2023/03/12 12:32:42;;;;;;;12.38;5.90;;;5.40;99.90;;;;;;4966110;28;20046;-50
2023/03/12 12:35:20;;;;;;;5.07;4.57;;;5.50;99.90;;;;;;4979626;28;20098;-49
2023/03/12 12:38:01;;;;;;;5.43;4.50;;;5.30;99.90;;;;;;4983976;28;20061;-48
2023/03/12 12:40:36;;;;;;;6.53;4.70;;;5.20;99.90;;;;;;4977041;28;20038;-52
2023/03/12 12:43:08;;;;;;;9.75;5.60;;;5.30;99.90;;;;;;4983941;28;20042;-49
2023/03/12 12:45:39;;;;;;;8.93;5.50;;;5.30;99.90;;;;;;4979835;28;20027;-51
2023/03/12 12:48:13;;;;;;;7.28;5.72;;;5.40;99.90;;;;;;4965374;28;20035;-49
2023/03/12 12:50:38;;;;;;;8.23;4.97;;;5.50;99.90;;;;;;4972761;28;20043;-49
2023/03/12 12:53:28;;;;;;;6.40;5.72;;;5.20;99.90;;;;;;4965034;28;20117;-53
2023/03/12 12:55:57;;;;;;;6.03;5.25;;;5.40;99.90;;;;;;4964945;28;20405;-52
2023/03/12 12:58:29;;;;;;;5.85;4.68;;;5.60;99.90;;;;;;4965130;28;20504;-52
2023/03/12 13:00:59;;;;;;;6.95;4.85;;;5.70;99.90;;;;;;4965639;28;20386;-48
2023/03/12 13:03:26;;;;;;;4.70;4.05;;;5.90;99.90;;;;;;4965485;28;20054;-49
2023/03/12 13:05:51;;;;;;;6.80;4.70;;;6.50;99.90;;;;;;4964837;28;20023;-51
2023/03/12 13:08:39;;;;;;;6.78;4.40;;;6.60;99.90;;;;;;4965429;28;20031;-52